createdAt,value
2022-10-16T00:01:07.269Z,100993.19
2022-10-16T00:04:31.292Z,100981.13
2022-10-16T00:07:55.236Z,100973.53
2022-10-16T00:11:24.373Z,100969.25
2022-10-16T00:14:51.265Z,100963.09
2022-10-16T00:18:15.263Z,100963.75
2022-10-16T00:21:42.342Z,100965.13
2022-10-16T00:25:23.254Z,100965.13
2022-10-16T00:28:47.292Z,100965.03
2022-10-16T00:32:11.260Z,100971.06
2022-10-16T00:35:37.267Z,100969.50
2022-10-16T00:39:02.859Z,100961.38
2022-10-16T00:42:32.284Z,100961.84
2022-10-16T00:45:55.269Z,100975.56
2022-10-16T00:49:23.305Z,100971.59
2022-10-16T00:52:47.266Z,100969.25
2022-10-16T00:56:11.290Z,100971.78
2022-10-16T00:59:39.293Z,100973.84
2022-10-16T01:03:17.371Z,100958.09
2022-10-16T01:07:04.386Z,100962.19
2022-10-16T01:10:38.401Z,100959.50
2022-10-16T01:14:05.304Z,100956.06
2022-10-16T01:17:35.401Z,100957.84
2022-10-16T01:21:14.387Z,100955.63
2022-10-16T01:24:49.354Z,100954.81
2022-10-16T01:28:13.398Z,100976.38
2022-10-16T01:31:43.287Z,100963.53
2022-10-16T01:35:36.433Z,100967.44
2022-10-16T01:39:02.333Z,100961.69
2022-10-16T01:42:33.331Z,100949.50
2022-10-16T01:45:57.285Z,100945.97
2022-10-16T01:49:20.322Z,100948.03
2022-10-16T01:52:44.286Z,100949.16
2022-10-16T01:56:09.420Z,100938.97
2022-10-16T01:59:36.315Z,100930.94
2022-10-16T02:03:04.361Z,100945.78
2022-10-16T02:06:28.437Z,100937.06
2022-10-16T02:09:51.311Z,100932.81
2022-10-16T02:13:50.313Z,100941.13
2022-10-16T02:17:14.331Z,100930.97
2022-10-16T02:20:35.896Z,100923.16
2022-10-16T02:24:12.332Z,100921.69
2022-10-16T02:28:07.310Z,100926.50
2022-10-16T02:31:35.343Z,100926.03
2022-10-16T02:34:59.349Z,100920.09
2022-10-16T02:38:22.454Z,100924.16
2022-10-16T02:41:45.404Z,100920.91
2022-10-16T02:45:09.330Z,100931.03
2022-10-16T02:48:33.341Z,100923.88
2022-10-16T02:51:56.345Z,100923.72
2022-10-16T02:55:19.321Z,100918.84
2022-10-16T02:58:42.320Z,100908.47
2022-10-16T03:02:05.351Z,100906.03
2022-10-16T03:05:29.301Z,100903.13
2022-10-16T03:08:52.345Z,100918.28
2022-10-16T03:12:17.435Z,100922.50
2022-10-16T03:15:40.332Z,100924.47
2022-10-16T03:19:05.425Z,100917.91
2022-10-16T03:22:29.354Z,100917.69
2022-10-16T03:25:53.324Z,100909.53
2022-10-16T03:29:17.359Z,100912.00
2022-10-16T03:32:40.357Z,100907.84
2022-10-16T03:36:11.339Z,100903.44
2022-10-16T03:39:36.430Z,100920.94
2022-10-16T03:43:04.591Z,100897.28
2022-10-16T03:46:29.331Z,100911.44
2022-10-16T03:49:55.360Z,100906.53
2022-10-16T03:53:18.340Z,100903.81
2022-10-16T03:56:42.428Z,100906.00
2022-10-16T04:00:06.460Z,100900.78
2022-10-16T04:03:32.405Z,100919.84
2022-10-16T04:06:56.345Z,100915.47
2022-10-16T04:10:20.371Z,100921.09
2022-10-16T04:13:44.357Z,100927.88
2022-10-16T04:17:08.344Z,100930.66
2022-10-16T04:20:31.373Z,100927.34
2022-10-16T04:23:55.364Z,100931.50
2022-10-16T04:27:19.351Z,100938.75
2022-10-16T04:30:44.440Z,100934.47
2022-10-16T04:34:08.379Z,100945.63
2022-10-16T04:37:32.405Z,100944.03
2022-10-16T04:40:58.475Z,100950.00
2022-10-16T04:44:22.365Z,100920.91
2022-10-16T04:47:46.454Z,100940.38
2022-10-16T04:51:10.407Z,100936.66
2022-10-16T04:54:34.358Z,100935.03
2022-10-16T04:57:58.408Z,100950.28
2022-10-16T05:01:22.374Z,100944.78
2022-10-16T05:04:46.404Z,100956.66
2022-10-16T05:08:09.346Z,100951.88
2022-10-16T05:11:34.401Z,100967.03
2022-10-16T05:14:58.345Z,100968.31
2022-10-16T05:18:22.377Z,100975.91
2022-10-16T05:21:46.402Z,100962.19
2022-10-16T05:25:10.376Z,100967.47
2022-10-16T05:28:35.446Z,100982.34
2022-10-16T05:31:58.353Z,100976.63
2022-10-16T05:35:21.404Z,100979.66
2022-10-16T05:38:44.389Z,100989.72
2022-10-16T05:42:08.401Z,100990.75
2022-10-16T05:45:32.463Z,100979.63
2022-10-16T05:48:56.380Z,100988.56
2022-10-16T05:52:20.389Z,100982.28
2022-10-16T05:55:44.426Z,100993.25
2022-10-16T05:59:08.377Z,100991.41
2022-10-16T06:02:32.482Z,100993.78
2022-10-16T06:05:56.367Z,100989.91
2022-10-16T06:09:20.407Z,100981.50
2022-10-16T06:12:44.417Z,100988.13
2022-10-16T06:16:07.403Z,100996.13
2022-10-16T06:19:31.427Z,100993.84
2022-10-16T06:22:48.987Z,101007.72
2022-10-16T06:26:23.423Z,101004.66
2022-10-16T06:29:47.434Z,101000.19
2022-10-16T06:33:12.350Z,101012.00
2022-10-16T06:36:35.430Z,101016.25
2022-10-16T06:40:01.427Z,101026.19
2022-10-16T06:43:24.417Z,101026.63
2022-10-16T06:46:48.413Z,101038.78
2022-10-16T06:50:12.402Z,101035.00
2022-10-16T06:53:39.762Z,101039.53
2022-10-16T06:57:14.396Z,101034.56
2022-10-16T07:00:38.456Z,101050.34
2022-10-16T07:04:02.415Z,101052.00
2022-10-16T07:07:26.440Z,101061.25
2022-10-16T07:10:50.406Z,101072.06
2022-10-16T07:14:14.405Z,101063.56
2022-10-16T07:17:39.371Z,101063.38
2022-10-16T07:21:03.455Z,101068.44
2022-10-16T07:24:29.419Z,101071.03
2022-10-16T07:27:52.457Z,101073.38
2022-10-16T07:31:22.438Z,101086.97
2022-10-16T07:34:45.461Z,101077.66
2022-10-16T07:38:09.412Z,101087.97
2022-10-16T07:41:34.440Z,101088.84
2022-10-16T07:44:59.446Z,101103.06
2022-10-16T07:48:23.427Z,101115.75
2022-10-16T07:51:47.450Z,101111.31
2022-10-16T07:55:10.429Z,101114.34
2022-10-16T07:58:34.451Z,101135.22
2022-10-16T08:01:51.197Z,101129.38
2022-10-16T08:08:38.460Z,101149.88
2022-10-16T08:12:02.615Z,101149.94
2022-10-16T08:15:26.461Z,101160.41
2022-10-16T08:18:54.480Z,101162.78
2022-10-16T08:22:19.456Z,101165.56
2022-10-16T08:25:43.446Z,101168.81
2022-10-16T08:29:07.540Z,101179.97
2022-10-16T08:32:31.811Z,101189.88
2022-10-16T08:35:56.460Z,101185.75
2022-10-16T08:39:20.447Z,101189.63
2022-10-16T08:43:03.443Z,101188.03
2022-10-16T08:46:55.430Z,101189.19
2022-10-16T08:50:27.434Z,101182.28
2022-10-16T08:54:06.503Z,101191.00
2022-10-16T08:57:37.469Z,101200.69
2022-10-16T09:01:10.558Z,101196.88
2022-10-16T09:05:00.485Z,101216.38
2022-10-16T09:08:30.423Z,101219.41
2022-10-16T09:12:21.493Z,101211.22
2022-10-16T09:15:50.447Z,101217.91
2022-10-16T09:19:22.487Z,101223.19
2022-10-16T09:22:53.474Z,101228.81
2022-10-16T09:26:18.498Z,101229.16
2022-10-16T09:29:42.483Z,101235.78
2022-10-16T09:33:07.435Z,101234.94
2022-10-16T09:36:31.493Z,101236.22
2022-10-16T09:40:10.457Z,101239.66
2022-10-16T09:44:06.577Z,101232.25
2022-10-16T09:47:36.457Z,101239.16
2022-10-16T09:51:00.505Z,101239.16
2022-10-16T09:54:23.462Z,101238.47
2022-10-16T09:57:46.463Z,101234.47
2022-10-16T10:01:10.460Z,101231.88
2022-10-16T10:04:37.483Z,101239.97
2022-10-16T10:08:01.472Z,101246.56
2022-10-16T10:11:24.502Z,101242.09
2022-10-16T10:14:49.471Z,101255.50
2022-10-16T10:18:14.503Z,101246.91
2022-10-16T10:21:37.501Z,101246.91
2022-10-16T10:25:26.480Z,101254.63
2022-10-16T10:29:14.484Z,101256.13
2022-10-16T10:32:48.500Z,101252.84
2022-10-16T10:36:35.486Z,101248.56
2022-10-16T10:40:29.506Z,101252.00
2022-10-16T10:44:11.519Z,101258.91
2022-10-16T10:48:11.472Z,101257.50
2022-10-16T10:51:37.469Z,101254.19
2022-10-16T10:55:13.500Z,101254.09
2022-10-16T10:58:54.523Z,101255.38
2022-10-16T11:03:12.491Z,101250.34
2022-10-16T11:06:38.524Z,101248.75
2022-10-16T11:10:09.527Z,101250.09
2022-10-16T11:13:48.540Z,101252.63
2022-10-16T11:17:15.495Z,101255.03
2022-10-16T11:21:03.510Z,101254.94
2022-10-16T11:24:35.493Z,101255.88
2022-10-16T11:28:07.540Z,101256.13
2022-10-16T11:31:52.516Z,101262.03
2022-10-16T11:35:27.516Z,101267.53
2022-10-16T11:39:09.520Z,101273.38
2022-10-16T11:42:35.518Z,101270.59
2022-10-16T11:46:12.507Z,101268.63
2022-10-16T11:49:38.495Z,101264.16
2022-10-16T11:53:09.495Z,101254.19
2022-10-16T11:56:35.551Z,101275.63
2022-10-16T12:00:05.538Z,101274.25
2022-10-16T12:03:56.558Z,101277.16
2022-10-16T12:07:24.223Z,101274.94
2022-10-16T12:10:45.548Z,101274.59
2022-10-16T12:14:28.522Z,101282.81
2022-10-16T12:17:54.557Z,101280.69
2022-10-16T12:21:17.524Z,101279.78
2022-10-16T12:24:57.547Z,101276.94
2022-10-16T12:28:38.559Z,101274.34
2022-10-16T12:32:03.496Z,101276.63
2022-10-16T12:35:38.544Z,101278.13
2022-10-16T12:39:03.546Z,101271.56
2022-10-16T12:42:55.492Z,101275.44
2022-10-16T12:46:54.571Z,101275.50
2022-10-16T12:50:19.520Z,101255.88
2022-10-16T12:53:43.571Z,101256.56
2022-10-16T12:57:45.484Z,101272.09
2022-10-16T13:01:46.582Z,101270.50
2022-10-16T13:05:41.528Z,101276.50
2022-10-16T13:09:26.568Z,101264.03
2022-10-16T13:13:02.554Z,101265.31
2022-10-16T13:16:32.652Z,101267.75
2022-10-16T13:20:22.530Z,101269.09
2022-10-16T13:23:53.588Z,101270.34
2022-10-16T13:27:23.516Z,101271.25
2022-10-16T13:30:57.555Z,101271.69
2022-10-16T13:34:22.542Z,101264.81
2022-10-16T13:37:46.548Z,101267.75
2022-10-16T13:41:16.547Z,101261.97
2022-10-16T13:44:39.594Z,101260.94
2022-10-16T13:48:03.534Z,101262.72
2022-10-16T13:51:34.577Z,101260.03
2022-10-16T13:55:01.052Z,101270.03
2022-10-16T13:58:29.557Z,101258.16
2022-10-16T14:01:57.611Z,101250.75
2022-10-16T14:05:24.694Z,101272.09
2022-10-16T14:08:47.544Z,101255.75
2022-10-16T14:12:17.564Z,101261.84
2022-10-16T14:15:41.549Z,101253.09
2022-10-16T14:19:19.589Z,101252.78
2022-10-16T14:22:56.535Z,101263.88
2022-10-16T14:26:28.614Z,101257.06
2022-10-16T14:29:53.581Z,101257.13
2022-10-16T14:33:20.600Z,101248.38
2022-10-16T14:36:44.611Z,101251.91
2022-10-16T14:40:08.598Z,101243.72
2022-10-16T14:43:38.583Z,101246.34
2022-10-16T14:47:01.586Z,101238.25
2022-10-16T14:50:24.591Z,101243.88
2022-10-16T14:53:47.580Z,101248.25
2022-10-16T14:57:13.627Z,101235.19
2022-10-16T15:00:38.576Z,101251.72
2022-10-16T15:04:03.662Z,101247.38
2022-10-16T15:07:35.602Z,101240.22
2022-10-16T15:10:59.609Z,101248.22
2022-10-16T15:14:28.552Z,101227.06
2022-10-16T15:17:52.618Z,101243.59
2022-10-16T15:21:15.581Z,101239.72
2022-10-16T15:24:39.606Z,101236.94
2022-10-16T15:28:03.584Z,101245.13
2022-10-16T15:31:27.622Z,101240.78
2022-10-16T15:34:52.625Z,101238.72
2022-10-16T15:38:15.622Z,101234.66
2022-10-16T15:45:07.625Z,101245.75
2022-10-16T15:48:31.602Z,101233.88
2022-10-16T15:51:57.586Z,101235.38
2022-10-16T15:55:23.627Z,101238.25
2022-10-16T15:58:46.578Z,101247.72
2022-10-16T16:02:11.707Z,101245.25
2022-10-16T16:05:36.600Z,101242.72
2022-10-16T16:08:59.665Z,101245.56
2022-10-16T16:12:18.156Z,101231.28
2022-10-16T16:15:35.647Z,101242.09
2022-10-16T16:18:58.644Z,101244.09
2022-10-16T16:22:22.613Z,101252.19
2022-10-16T16:25:46.598Z,101261.44
2022-10-16T16:29:11.649Z,101257.47
2022-10-16T16:32:34.626Z,101245.16
2022-10-16T16:35:57.653Z,101259.00
2022-10-16T16:39:21.639Z,101261.72
2022-10-16T16:42:44.652Z,101263.84
2022-10-16T16:46:07.640Z,101262.63
2022-10-16T16:49:31.629Z,101275.28
2022-10-16T16:52:56.676Z,101271.06
2022-10-16T16:56:21.626Z,101284.63
2022-10-16T16:59:46.667Z,101280.25
2022-10-16T17:03:12.658Z,101274.63
2022-10-16T17:06:38.632Z,101278.28
2022-10-16T17:10:02.659Z,101279.78
2022-10-16T17:13:19.304Z,101287.03
2022-10-16T17:16:43.781Z,101279.09
2022-10-16T17:20:06.623Z,101280.25
2022-10-16T17:23:30.674Z,101279.19
2022-10-16T17:26:56.651Z,101285.66
2022-10-16T17:30:20.674Z,101288.13
2022-10-16T17:33:45.674Z,101291.88
2022-10-16T17:37:08.720Z,101293.06
2022-10-16T17:40:32.653Z,101300.22
2022-10-16T17:43:56.724Z,101302.19
2022-10-16T17:47:19.615Z,101305.69
2022-10-16T17:50:43.675Z,101306.19
2022-10-16T17:54:07.650Z,101309.94
2022-10-16T17:57:31.671Z,101310.28
2022-10-16T18:00:54.657Z,101313.91
2022-10-16T18:04:20.668Z,101324.09
2022-10-16T18:07:44.654Z,101324.19
2022-10-16T18:11:08.711Z,101325.72
2022-10-16T18:14:26.261Z,101329.50
2022-10-16T18:17:47.705Z,101336.88
2022-10-16T18:21:15.670Z,101334.75
2022-10-16T18:24:39.702Z,101338.03
2022-10-16T18:28:03.667Z,101336.13
2022-10-16T18:31:32.914Z,101336.66
2022-10-16T18:34:57.667Z,101349.16
2022-10-16T18:38:20.705Z,101330.13
2022-10-16T18:41:43.686Z,101344.41
2022-10-16T18:45:06.677Z,101341.53
2022-10-16T18:48:29.677Z,101351.63
2022-10-16T18:51:56.706Z,101347.47
2022-10-16T18:55:20.714Z,101353.25
2022-10-16T18:58:45.723Z,101357.59
2022-10-16T19:02:09.749Z,101360.06
2022-10-16T19:05:32.686Z,101358.94
2022-10-16T19:08:56.710Z,101354.38
2022-10-16T19:12:19.692Z,101361.88
2022-10-16T19:15:44.402Z,101364.84
2022-10-16T19:19:09.706Z,101377.78
2022-10-16T19:22:38.736Z,101375.31
2022-10-16T19:26:01.664Z,101379.78
2022-10-16T19:29:25.856Z,101387.09
2022-10-16T19:32:49.694Z,101390.28
2022-10-16T19:36:30.829Z,101397.81
2022-10-16T19:39:54.680Z,101399.13
2022-10-16T19:43:17.829Z,101408.88
2022-10-16T19:46:42.695Z,101406.28
2022-10-16T19:50:06.737Z,101412.66
2022-10-16T19:53:30.751Z,101412.56
2022-10-16T19:56:53.735Z,101400.78
2022-10-16T20:00:22.701Z,101407.47
2022-10-16T20:03:47.732Z,101405.22
2022-10-16T20:07:12.691Z,101416.28
2022-10-16T20:10:35.742Z,101407.97
2022-10-16T20:13:58.723Z,101409.63
2022-10-16T20:17:14.728Z,101413.03
2022-10-16T20:20:38.729Z,101416.00
2022-10-16T20:24:01.706Z,101405.22
2022-10-16T20:27:25.961Z,101397.22
2022-10-16T20:30:55.751Z,101403.78
2022-10-16T20:34:21.734Z,101397.81
2022-10-16T20:37:45.750Z,101403.84
2022-10-16T20:41:09.723Z,101396.69
2022-10-16T20:44:32.756Z,101407.34
2022-10-16T20:47:55.737Z,101398.00
2022-10-16T20:51:32.760Z,101406.28
2022-10-16T20:54:55.737Z,101390.06
2022-10-16T20:58:20.743Z,101400.69
2022-10-16T21:01:44.807Z,101384.69
2022-10-16T21:05:09.751Z,101391.56
2022-10-16T21:08:32.718Z,101406.69
2022-10-16T21:11:55.759Z,101399.19
2022-10-16T21:15:18.771Z,101400.59
2022-10-16T21:18:38.771Z,101408.66
2022-10-16T21:22:00.822Z,101383.72
2022-10-16T21:25:25.719Z,101393.41
2022-10-16T21:28:48.837Z,101398.28
2022-10-16T21:32:12.759Z,101393.66
2022-10-16T21:35:35.747Z,101393.41
2022-10-16T21:38:59.755Z,101393.16
2022-10-16T21:42:23.754Z,101386.19
2022-10-16T21:45:49.767Z,101370.50
2022-10-16T21:49:15.736Z,101374.84
2022-10-16T21:52:38.798Z,101385.78
2022-10-16T21:56:02.773Z,101373.75
2022-10-16T21:59:27.774Z,101374.00
2022-10-16T22:02:50.775Z,101358.22
2022-10-16T22:06:18.818Z,101366.81
2022-10-16T22:09:42.785Z,101362.75
2022-10-16T22:13:05.730Z,101357.03
2022-10-16T22:16:28.795Z,101357.72
2022-10-16T22:19:45.370Z,101361.00
2022-10-16T22:23:04.780Z,101345.19
2022-10-16T22:26:27.766Z,101360.94
2022-10-16T22:29:50.773Z,101353.31
2022-10-16T22:33:14.808Z,101351.41
2022-10-16T22:36:39.767Z,101348.91
2022-10-16T22:40:02.809Z,101348.31
2022-10-16T22:43:26.749Z,101354.66
2022-10-16T22:46:49.801Z,101334.69
2022-10-16T22:50:12.797Z,101354.41
2022-10-16T22:53:35.778Z,101358.22
2022-10-16T22:56:59.785Z,101357.38
2022-10-16T23:00:24.813Z,101358.69
2022-10-16T23:03:48.806Z,101353.75
2022-10-16T23:07:12.772Z,101350.25
2022-10-16T23:10:37.885Z,101345.72
2022-10-16T23:14:01.790Z,101330.28
2022-10-16T23:17:25.811Z,101316.66
2022-10-16T23:20:43.404Z,101317.94
2022-10-16T23:24:02.826Z,101330.88
2022-10-16T23:27:27.793Z,101323.22
2022-10-16T23:30:50.790Z,101329.38
2022-10-16T23:34:14.794Z,101329.03
2022-10-16T23:37:37.805Z,101329.75
2022-10-16T23:41:00.794Z,101327.00
2022-10-16T23:44:23.840Z,101333.47
2022-10-16T23:47:49.779Z,101338.38
2022-10-16T23:51:14.833Z,101325.97
2022-10-16T23:54:37.792Z,101322.84
2022-10-16T23:58:00.837Z,101320.41
